Search for airport 
image banner adimage banner adimage banner ad
image banner ad

07NV - Border Line Farm

Located in Baker, United States

ICAO - 07NV, IATA -

Data provided by Airmate  

General information

Coordinates: N39°6'8" W114°3'12"
Elevation is 5120 feet MSL.
 
View others Airports in Nevada

Operational data

Special qualification required
Current time UTC:
Current local time:
Weather at : KELY - Ely Arpt /Yelland Fld/ ( 71 km )
METAR: KELY 130053Z AUTO 24008G18KT 10SM CLR 30/M08 A3007 RMK AO2 SLP096 T03001083 $
TAF: KELY 122329Z 1223/1324 VRB06KT P6SM SKC FM130400 17010KT P6SM SKC FM131800 17015G25KT P6SM SKC
View NOTAMs / SUP AIP / TFR affecting this airport [VIEW]
Communications frequencies: [VIEW]

Runways:

RWY identifierQFULength (ft)Width (ft)SurfaceLDA (ft)
17475050EARTH
35475050EARTH

Airport contact information

Address: Baker United States

Satellite view of 07NV